sensor_id;sensor_type;location;lat;lon;timestamp;pressure;altitude;pressure_sealevel;temperature;humidity
11856;BME280;5987;53.140;8.904;2022-08-11T00:01:48;102432.09;;;17.02;79.41
11856;BME280;5987;53.140;8.904;2022-08-11T00:04:56;102439.22;;;17.00;78.94
11856;BME280;5987;53.140;8.904;2022-08-11T00:08:04;102430.41;;;17.00;78.97
11856;BME280;5987;53.140;8.904;2022-08-11T00:11:11;102435.78;;;16.98;78.86
11856;BME280;5987;53.140;8.904;2022-08-11T00:14:19;102438.50;;;16.96;78.74
11856;BME280;5987;53.140;8.904;2022-08-11T00:17:28;102435.06;;;16.93;78.63
11856;BME280;5987;53.140;8.904;2022-08-11T00:20:40;102438.78;;;16.87;78.49
11856;BME280;5987;53.140;8.904;2022-08-11T00:23:51;102437.19;;;16.83;78.70
11856;BME280;5987;53.140;8.904;2022-08-11T00:26:55;102440.88;;;16.79;78.64
11856;BME280;5987;53.140;8.904;2022-08-11T00:30:00;102440.97;;;16.76;78.64
11856;BME280;5987;53.140;8.904;2022-08-11T00:33:04;102448.09;;;16.75;78.56
11856;BME280;5987;53.140;8.904;2022-08-11T00:36:15;102445.50;;;16.74;78.58
11856;BME280;5987;53.140;8.904;2022-08-11T00:39:28;102446.53;;;16.70;78.58
11856;BME280;5987;53.140;8.904;2022-08-11T00:42:47;102440.47;;;16.66;78.65
11856;BME280;5987;53.140;8.904;2022-08-11T00:46:15;102450.34;;;16.62;78.57
11856;BME280;5987;53.140;8.904;2022-08-11T00:49:38;102445.22;;;16.56;78.57
11856;BME280;5987;53.140;8.904;2022-08-11T00:53:15;102448.28;;;16.45;78.71
11856;BME280;5987;53.140;8.904;2022-08-11T00:57:13;102447.63;;;16.39;78.88
11856;BME280;5987;53.140;8.904;2022-08-11T01:01:09;102451.44;;;16.32;78.78
11856;BME280;5987;53.140;8.904;2022-08-11T01:05:22;102444.81;;;16.18;79.15
11856;BME280;5987;53.140;8.904;2022-08-11T01:12:39;102450.63;;;16.03;80.05
11856;BME280;5987;53.140;8.904;2022-08-11T01:20:24;102452.16;;;15.83;80.90
11856;BME280;5987;53.140;8.904;2022-08-11T01:24:55;102451.72;;;15.69;81.63
11856;BME280;5987;53.140;8.904;2022-08-11T01:39:55;102449.63;;;15.52;82.91
11856;BME280;5987;53.140;8.904;2022-08-11T01:47:38;102452.31;;;15.50;82.78
11856;BME280;5987;53.140;8.904;2022-08-11T01:51:23;102456.72;;;15.50;82.92
11856;BME280;5987;53.140;8.904;2022-08-11T01:54:40;102457.88;;;15.41;82.74
11856;BME280;5987;53.140;8.904;2022-08-11T01:57:52;102464.19;;;15.37;82.54
11856;BME280;5987;53.140;8.904;2022-08-11T02:01:14;102458.47;;;15.22;82.58
11856;BME280;5987;53.140;8.904;2022-08-11T02:04:33;102459.47;;;15.18;82.82
11856;BME280;5987;53.140;8.904;2022-08-11T02:07:55;102454.38;;;15.12;83.11
11856;BME280;5987;53.140;8.904;2022-08-11T02:11:17;102450.34;;;14.99;83.59
11856;BME280;5987;53.140;8.904;2022-08-11T02:14:48;102457.72;;;14.87;83.83
11856;BME280;5987;53.140;8.904;2022-08-11T02:18:15;102454.38;;;14.81;84.32
11856;BME280;5987;53.140;8.904;2022-08-11T02:21:37;102457.03;;;14.81;84.78
11856;BME280;5987;53.140;8.904;2022-08-11T02:25:07;102449.28;;;14.74;85.02
11856;BME280;5987;53.140;8.904;2022-08-11T02:28:21;102443.16;;;14.72;85.27
11856;BME280;5987;53.140;8.904;2022-08-11T02:31:48;102459.06;;;14.71;85.38
11856;BME280;5987;53.140;8.904;2022-08-11T02:35:41;102453.16;;;14.59;85.21
11856;BME280;5987;53.140;8.904;2022-08-11T02:38:58;102449.09;;;14.48;85.59
11856;BME280;5987;53.140;8.904;2022-08-11T02:42:20;102448.34;;;14.43;86.18
11856;BME280;5987;53.140;8.904;2022-08-11T02:45:48;102446.75;;;14.37;86.14
11856;BME280;5987;53.140;8.904;2022-08-11T02:49:11;102441.50;;;14.35;86.58
11856;BME280;5987;53.140;8.904;2022-08-11T02:52:49;102440.69;;;14.33;86.73
11856;BME280;5987;53.140;8.904;2022-08-11T02:56:05;102444.13;;;14.35;86.84
11856;BME280;5987;53.140;8.904;2022-08-11T02:59:27;102445.94;;;14.35;86.81
11856;BME280;5987;53.140;8.904;2022-08-11T03:03:12;102448.53;;;14.36;87.12
11856;BME280;5987;53.140;8.904;2022-08-11T03:06:33;102438.72;;;14.40;87.08
11856;BME280;5987;53.140;8.904;2022-08-11T03:09:52;102445.78;;;14.39;86.85
11856;BME280;5987;53.140;8.904;2022-08-11T03:13:07;102450.19;;;14.40;86.69
11856;BME280;5987;53.140;8.904;2022-08-11T03:16:52;102455.66;;;14.33;86.56
11856;BME280;5987;53.140;8.904;2022-08-11T03:20:27;102447.91;;;14.27;86.26
11856;BME280;5987;53.140;8.904;2022-08-11T03:23:52;102452.38;;;14.23;86.42
11856;BME280;5987;53.140;8.904;2022-08-11T03:27:07;102448.00;;;14.23;86.40
11856;BME280;5987;53.140;8.904;2022-08-11T03:30:16;102447.22;;;14.18;86.36
11856;BME280;5987;53.140;8.904;2022-08-11T03:33:27;102452.50;;;14.18;86.23
11856;BME280;5987;53.140;8.904;2022-08-11T03:37:30;102450.00;;;14.14;86.34
11856;BME280;5987;53.140;8.904;2022-08-11T03:41:10;102452.88;;;14.04;86.56
11856;BME280;5987;53.140;8.904;2022-08-11T03:45:16;102448.47;;;14.03;86.45
11856;BME280;5987;53.140;8.904;2022-08-11T03:48:39;102450.41;;;13.98;86.62
11856;BME280;5987;53.140;8.904;2022-08-11T03:51:54;102452.16;;;13.98;86.71
11856;BME280;5987;53.140;8.904;2022-08-11T03:55:10;102458.22;;;14.01;87.06
11856;BME280;5987;53.140;8.904;2022-08-11T03:58:54;102451.16;;;14.02;86.67
11856;BME280;5987;53.140;8.904;2022-08-11T04:02:45;102447.78;;;13.97;86.60
11856;BME280;5987;53.140;8.904;2022-08-11T04:14:42;102455.81;;;13.92;87.19
11856;BME280;5987;53.140;8.904;2022-08-11T04:19:14;102456.75;;;13.91;87.22
11856;BME280;5987;53.140;8.904;2022-08-11T04:22:51;102451.50;;;13.89;87.19
11856;BME280;5987;53.140;8.904;2022-08-11T04:26:52;102455.03;;;13.88;86.95
11856;BME280;5987;53.140;8.904;2022-08-11T04:30:06;102457.47;;;13.96;86.90
11856;BME280;5987;53.140;8.904;2022-08-11T04:33:58;102452.16;;;13.98;87.30
11856;BME280;5987;53.140;8.904;2022-08-11T04:37:40;102451.22;;;14.00;87.10
11856;BME280;5987;53.140;8.904;2022-08-11T04:45:44;102452.81;;;14.06;87.01
11856;BME280;5987;53.140;8.904;2022-08-11T04:49:37;102464.03;;;14.16;87.37
11856;BME280;5987;53.140;8.904;2022-08-11T04:53:33;102449.66;;;14.28;86.91
11856;BME280;5987;53.140;8.904;2022-08-11T04:57:08;102448.47;;;14.38;87.02
11856;BME280;5987;53.140;8.904;2022-08-11T05:00:52;102449.06;;;14.49;86.65
11856;BME280;5987;53.140;8.904;2022-08-11T05:04:49;102449.63;;;14.62;86.36
11856;BME280;5987;53.140;8.904;2022-08-11T05:12:25;102449.47;;;14.98;85.53
11856;BME280;5987;53.140;8.904;2022-08-11T05:15:48;102454.56;;;15.04;84.48
11856;BME280;5987;53.140;8.904;2022-08-11T05:19:16;102451.53;;;15.18;83.79
11856;BME280;5987;53.140;8.904;2022-08-11T05:22:47;102456.34;;;15.34;83.06
11856;BME280;5987;53.140;8.904;2022-08-11T05:26:13;102453.31;;;15.46;82.22
11856;BME280;5987;53.140;8.904;2022-08-11T05:29:59;102453.59;;;15.65;81.21
11856;BME280;5987;53.140;8.904;2022-08-11T05:33:33;102453.84;;;15.86;80.55
11856;BME280;5987;53.140;8.904;2022-08-11T05:37:04;102456.28;;;16.19;79.19
11856;BME280;5987;53.140;8.904;2022-08-11T05:40:28;102457.03;;;16.73;77.81
11856;BME280;5987;53.140;8.904;2022-08-11T05:43:57;102450.38;;;17.32;75.03
11856;BME280;5987;53.140;8.904;2022-08-11T05:47:25;102448.38;;;17.61;72.17
11856;BME280;5987;53.140;8.904;2022-08-11T05:50:53;102449.31;;;18.03;70.57
11856;BME280;5987;53.140;8.904;2022-08-11T05:54:18;102447.16;;;18.33;69.02
11856;BME280;5987;53.140;8.904;2022-08-11T05:57:40;102451.09;;;18.64;67.82
11856;BME280;5987;53.140;8.904;2022-08-11T06:00:53;102450.72;;;18.92;66.53
11856;BME280;5987;53.140;8.904;2022-08-11T06:03:59;102448.78;;;19.15;65.04
11856;BME280;5987;53.140;8.904;2022-08-11T06:07:28;102451.44;;;19.34;64.18
11856;BME280;5987;53.140;8.904;2022-08-11T06:10:51;102453.91;;;19.56;63.21
11856;BME280;5987;53.140;8.904;2022-08-11T06:13:56;102452.38;;;19.69;62.71
11856;BME280;5987;53.140;8.904;2022-08-11T06:17:02;102462.16;;;19.88;62.93
11856;BME280;5987;53.140;8.904;2022-08-11T06:20:10;102459.03;;;20.15;61.37
11856;BME280;5987;53.140;8.904;2022-08-11T06:23:17;102456.66;;;20.26;60.69
11856;BME280;5987;53.140;8.904;2022-08-11T06:26:22;102458.38;;;20.10;61.94
11856;BME280;5987;53.140;8.904;2022-08-11T06:29:28;102451.31;;;20.44;61.12
11856;BME280;5987;53.140;8.904;2022-08-11T06:32:52;102451.03;;;20.32;61.54
11856;BME280;5987;53.140;8.904;2022-08-11T06:36:04;102444.28;;;20.76;60.67
11856;BME280;5987;53.140;8.904;2022-08-11T06:39:21;102442.06;;;20.67;59.96
11856;BME280;5987;53.140;8.904;2022-08-11T06:42:42;102441.72;;;20.75;59.92
11856;BME280;5987;53.140;8.904;2022-08-11T06:45:54;102439.41;;;21.00;59.70
11856;BME280;5987;53.140;8.904;2022-08-11T06:49:06;102439.91;;;21.23;59.65
11856;BME280;5987;53.140;8.904;2022-08-11T06:52:35;102434.88;;;21.49;58.51
11856;BME280;5987;53.140;8.904;2022-08-11T06:55:44;102440.22;;;21.49;58.36
11856;BME280;5987;53.140;8.904;2022-08-11T06:59:06;102433.13;;;21.80;58.12
11856;BME280;5987;53.140;8.904;2022-08-11T07:02:31;102440.75;;;21.71;56.82
11856;BME280;5987;53.140;8.904;2022-08-11T07:05:46;102435.56;;;21.68;58.28
11856;BME280;5987;53.140;8.904;2022-08-11T07:09:23;102438.25;;;21.99;58.00
11856;BME280;5987;53.140;8.904;2022-08-11T07:12:53;102444.22;;;22.18;57.33
11856;BME280;5987;53.140;8.904;2022-08-11T07:16:40;102441.25;;;22.53;55.77
11856;BME280;5987;53.140;8.904;2022-08-11T07:19:53;102437.88;;;22.64;55.36
11856;BME280;5987;53.140;8.904;2022-08-11T07:23:16;102448.97;;;22.72;54.78
11856;BME280;5987;53.140;8.904;2022-08-11T07:26:44;102445.28;;;23.02;53.99
11856;BME280;5987;53.140;8.904;2022-08-11T07:30:10;102438.59;;;23.09;53.60
11856;BME280;5987;53.140;8.904;2022-08-11T07:33:24;102440.31;;;23.10;53.43
11856;BME280;5987;53.140;8.904;2022-08-11T07:36:54;102436.47;;;23.29;53.64
11856;BME280;5987;53.140;8.904;2022-08-11T07:39:59;102449.34;;;23.64;52.58
11856;BME280;5987;53.140;8.904;2022-08-11T07:43:06;102443.56;;;23.57;52.89
11856;BME280;5987;53.140;8.904;2022-08-11T07:46:11;102443.34;;;23.88;52.01
11856;BME280;5987;53.140;8.904;2022-08-11T07:49:36;102445.53;;;24.21;50.87
11856;BME280;5987;53.140;8.904;2022-08-11T07:53:00;102439.22;;;23.82;51.42
11856;BME280;5987;53.140;8.904;2022-08-11T07:56:06;102429.41;;;24.60;49.54
11856;BME280;5987;53.140;8.904;2022-08-11T07:59:17;102434.63;;;25.24;49.28
11856;BME280;5987;53.140;8.904;2022-08-11T08:03:03;102431.81;;;25.26;47.97
11856;BME280;5987;53.140;8.904;2022-08-11T08:06:26;102439.03;;;25.25;48.03
11856;BME280;5987;53.140;8.904;2022-08-11T08:09:49;102435.66;;;25.47;47.56
11856;BME280;5987;53.140;8.904;2022-08-11T08:13:15;102438.09;;;25.50;47.16
11856;BME280;5987;53.140;8.904;2022-08-11T08:16:38;102428.56;;;25.82;45.64
11856;BME280;5987;53.140;8.904;2022-08-11T08:20:02;102433.13;;;25.93;46.00
11856;BME280;5987;53.140;8.904;2022-08-11T08:23:08;102441.63;;;26.11;46.28
11856;BME280;5987;53.140;8.904;2022-08-11T08:26:15;102438.47;;;26.40;43.27
11856;BME280;5987;53.140;8.904;2022-08-11T08:29:37;102430.53;;;26.27;44.56
11856;BME280;5987;53.140;8.904;2022-08-11T08:32:59;102427.13;;;26.59;44.37
11856;BME280;5987;53.140;8.904;2022-08-11T08:36:06;102434.44;;;26.68;45.02
11856;BME280;5987;53.140;8.904;2022-08-11T08:39:19;102423.41;;;27.05;44.23
11856;BME280;5987;53.140;8.904;2022-08-11T08:42:27;102429.72;;;27.27;42.85
11856;BME280;5987;53.140;8.904;2022-08-11T08:45:35;102423.88;;;27.21;42.66
11856;BME280;5987;53.140;8.904;2022-08-11T08:48:42;102421.47;;;26.96;43.86
11856;BME280;5987;53.140;8.904;2022-08-11T08:51:54;102421.19;;;27.54;42.12
11856;BME280;5987;53.140;8.904;2022-08-11T08:55:21;102425.44;;;27.68;42.52
11856;BME280;5987;53.140;8.904;2022-08-11T08:58:25;102424.03;;;28.37;41.21
11856;BME280;5987;53.140;8.904;2022-08-11T09:01:36;102418.97;;;27.80;40.63
11856;BME280;5987;53.140;8.904;2022-08-11T09:04:45;102417.50;;;28.18;39.13
11856;BME280;5987;53.140;8.904;2022-08-11T09:07:54;102414.38;;;28.13;37.92
11856;BME280;5987;53.140;8.904;2022-08-11T09:11:01;102412.50;;;28.35;38.72
11856;BME280;5987;53.140;8.904;2022-08-11T09:14:26;102406.84;;;28.48;38.10
11856;BME280;5987;53.140;8.904;2022-08-11T09:17:54;102413.94;;;28.39;36.38
11856;BME280;5987;53.140;8.904;2022-08-11T09:21:05;102400.69;;;28.67;37.10
11856;BME280;5987;53.140;8.904;2022-08-11T09:24:11;102397.63;;;29.01;36.33
11856;BME280;5987;53.140;8.904;2022-08-11T09:27:34;102395.06;;;28.89;34.56
11856;BME280;5987;53.140;8.904;2022-08-11T09:30:52;102388.69;;;29.10;35.20
11856;BME280;5987;53.140;8.904;2022-08-11T09:33:57;102394.84;;;29.32;35.04
11856;BME280;5987;53.140;8.904;2022-08-11T09:37:03;102389.97;;;29.65;33.74
11856;BME280;5987;53.140;8.904;2022-08-11T09:40:48;102386.84;;;29.11;32.99
11856;BME280;5987;53.140;8.904;2022-08-11T09:43:59;102385.66;;;28.12;34.67
11856;BME280;5987;53.140;8.904;2022-08-11T09:47:26;102381.72;;;27.74;33.37
11856;BME280;5987;53.140;8.904;2022-08-11T09:50:32;102379.59;;;27.56;33.64
11856;BME280;5987;53.140;8.904;2022-08-11T09:53:39;102369.66;;;27.25;33.16
11856;BME280;5987;53.140;8.904;2022-08-11T09:57:05;102370.72;;;27.01;32.85
11856;BME280;5987;53.140;8.904;2022-08-11T10:00:31;102367.63;;;27.05;33.60
11856;BME280;5987;53.140;8.904;2022-08-11T10:03:42;102366.66;;;27.07;34.05
11856;BME280;5987;53.140;8.904;2022-08-11T10:06:53;102358.47;;;27.29;34.01
11856;BME280;5987;53.140;8.904;2022-08-11T10:10:09;102361.69;;;26.91;33.54
11856;BME280;5987;53.140;8.904;2022-08-11T10:13:19;102358.63;;;27.28;33.33
11856;BME280;5987;53.140;8.904;2022-08-11T10:16:50;102353.47;;;27.25;33.39
11856;BME280;5987;53.140;8.904;2022-08-11T10:19:56;102357.63;;;27.40;33.93
11856;BME280;5987;53.140;8.904;2022-08-11T10:23:09;102347.66;;;27.41;32.57
11856;BME280;5987;53.140;8.904;2022-08-11T10:26:32;102348.59;;;27.18;32.49
11856;BME280;5987;53.140;8.904;2022-08-11T10:29:56;102343.50;;;27.04;33.08
11856;BME280;5987;53.140;8.904;2022-08-11T10:33:20;102334.91;;;27.10;33.27
11856;BME280;5987;53.140;8.904;2022-08-11T10:36:59;102330.03;;;27.04;33.44
11856;BME280;5987;53.140;8.904;2022-08-11T10:40:07;102333.69;;;27.03;33.22
11856;BME280;5987;53.140;8.904;2022-08-11T10:43:13;102330.28;;;27.01;33.19
11856;BME280;5987;53.140;8.904;2022-08-11T10:46:39;102327.84;;;26.98;32.60
11856;BME280;5987;53.140;8.904;2022-08-11T10:50:02;102327.59;;;27.01;32.65
11856;BME280;5987;53.140;8.904;2022-08-11T10:53:24;102314.59;;;27.06;33.17
11856;BME280;5987;53.140;8.904;2022-08-11T10:56:46;102315.47;;;26.95;32.81
11856;BME280;5987;53.140;8.904;2022-08-11T11:00:10;102310.84;;;27.18;32.86
11856;BME280;5987;53.140;8.904;2022-08-11T11:03:19;102312.75;;;27.28;31.66
11856;BME280;5987;53.140;8.904;2022-08-11T11:06:32;102308.84;;;27.53;33.36
11856;BME280;5987;53.140;8.904;2022-08-11T11:09:44;102298.47;;;27.48;32.23
11856;BME280;5987;53.140;8.904;2022-08-11T11:12:54;102310.94;;;27.49;31.49
11856;BME280;5987;53.140;8.904;2022-08-11T11:16:17;102302.22;;;27.36;30.29
11856;BME280;5987;53.140;8.904;2022-08-11T11:19:43;102306.69;;;27.68;30.41
11856;BME280;5987;53.140;8.904;2022-08-11T11:22:50;102299.44;;;27.47;30.53
11856;BME280;5987;53.140;8.904;2022-08-11T11:26:28;102295.31;;;27.43;32.45
11856;BME280;5987;53.140;8.904;2022-08-11T11:29:55;102294.44;;;27.64;32.41
11856;BME280;5987;53.140;8.904;2022-08-11T11:33:12;102298.69;;;27.66;32.80
11856;BME280;5987;53.140;8.904;2022-08-11T11:36:36;102291.06;;;27.71;32.72
11856;BME280;5987;53.140;8.904;2022-08-11T11:39:45;102290.38;;;27.48;31.78
11856;BME280;5987;53.140;8.904;2022-08-11T11:42:53;102291.28;;;27.59;32.82
11856;BME280;5987;53.140;8.904;2022-08-11T11:45:59;102293.72;;;27.41;31.86
11856;BME280;5987;53.140;8.904;2022-08-11T11:49:03;102289.84;;;27.54;33.29
11856;BME280;5987;53.140;8.904;2022-08-11T11:52:21;102290.69;;;27.55;31.79
11856;BME280;5987;53.140;8.904;2022-08-11T11:55:26;102288.16;;;27.63;31.22
11856;BME280;5987;53.140;8.904;2022-08-11T11:58:30;102288.50;;;27.70;31.17
11856;BME280;5987;53.140;8.904;2022-08-11T12:01:53;102276.03;;;27.79;30.63
11856;BME280;5987;53.140;8.904;2022-08-11T12:04:58;102279.31;;;27.51;30.35
11856;BME280;5987;53.140;8.904;2022-08-11T12:08:06;102279.00;;;27.76;31.07
11856;BME280;5987;53.140;8.904;2022-08-11T12:11:20;102271.28;;;27.92;29.88
11856;BME280;5987;53.140;8.904;2022-08-11T12:14:44;102274.31;;;27.78;29.61
11856;BME280;5987;53.140;8.904;2022-08-11T12:17:48;102273.91;;;28.03;29.92
11856;BME280;5987;53.140;8.904;2022-08-11T12:20:54;102260.56;;;28.02;30.09
11856;BME280;5987;53.140;8.904;2022-08-11T12:24:01;102270.16;;;27.95;30.53
11856;BME280;5987;53.140;8.904;2022-08-11T12:27:25;102255.75;;;28.15;30.52
11856;BME280;5987;53.140;8.904;2022-08-11T12:30:29;102259.72;;;28.11;30.64
11856;BME280;5987;53.140;8.904;2022-08-11T12:33:34;102252.81;;;27.97;30.62
11856;BME280;5987;53.140;8.904;2022-08-11T12:36:43;102251.44;;;28.03;30.77
11856;BME280;5987;53.140;8.904;2022-08-11T12:39:58;102255.38;;;27.89;30.41
11856;BME280;5987;53.140;8.904;2022-08-11T12:43:44;102242.91;;;27.67;30.75
11856;BME280;5987;53.140;8.904;2022-08-11T12:47:08;102241.44;;;27.94;30.36
11856;BME280;5987;53.140;8.904;2022-08-11T12:50:12;102228.22;;;28.31;29.29
11856;BME280;5987;53.140;8.904;2022-08-11T12:53:41;102227.31;;;28.11;28.40
11856;BME280;5987;53.140;8.904;2022-08-11T12:56:55;102231.03;;;28.30;28.87
11856;BME280;5987;53.140;8.904;2022-08-11T13:00:37;102215.09;;;28.17;29.44
11856;BME280;5987;53.140;8.904;2022-08-11T13:03:58;102221.66;;;28.34;28.95
11856;BME280;5987;53.140;8.904;2022-08-11T13:07:21;102224.78;;;28.19;28.73
11856;BME280;5987;53.140;8.904;2022-08-11T13:10:26;102216.94;;;28.16;29.26
11856;BME280;5987;53.140;8.904;2022-08-11T13:13:48;102214.38;;;28.05;29.24
11856;BME280;5987;53.140;8.904;2022-08-11T13:16:59;102219.78;;;28.05;29.74
11856;BME280;5987;53.140;8.904;2022-08-11T13:20:23;102206.81;;;27.99;29.68
11856;BME280;5987;53.140;8.904;2022-08-11T13:23:28;102209.03;;;27.94;29.83
11856;BME280;5987;53.140;8.904;2022-08-11T13:26:36;102205.69;;;28.11;29.96
11856;BME280;5987;53.140;8.904;2022-08-11T13:29:52;102207.03;;;28.36;28.86
11856;BME280;5987;53.140;8.904;2022-08-11T13:33:18;102195.53;;;28.34;28.79
11856;BME280;5987;53.140;8.904;2022-08-11T13:36:23;102197.47;;;28.22;29.54
11856;BME280;5987;53.140;8.904;2022-08-11T13:39:32;102197.75;;;28.10;29.79
11856;BME280;5987;53.140;8.904;2022-08-11T13:42:38;102193.50;;;28.17;29.99
11856;BME280;5987;53.140;8.904;2022-08-11T13:45:45;102199.94;;;28.26;29.70
11856;BME280;5987;53.140;8.904;2022-08-11T13:48:53;102183.28;;;28.30;29.15
11856;BME280;5987;53.140;8.904;2022-08-11T13:52:04;102190.97;;;28.54;28.73
11856;BME280;5987;53.140;8.904;2022-08-11T13:55:11;102185.72;;;28.53;28.67
11856;BME280;5987;53.140;8.904;2022-08-11T13:58:43;102171.63;;;28.49;28.25
11856;BME280;5987;53.140;8.904;2022-08-11T14:02:00;102168.53;;;28.64;28.57
11856;BME280;5987;53.140;8.904;2022-08-11T14:05:27;102175.34;;;28.58;28.99
11856;BME280;5987;53.140;8.904;2022-08-11T14:08:37;102170.22;;;28.65;29.12
11856;BME280;5987;53.140;8.904;2022-08-11T14:11:48;102167.09;;;28.60;28.75
11856;BME280;5987;53.140;8.904;2022-08-11T14:15:30;102158.97;;;28.60;28.91
11856;BME280;5987;53.140;8.904;2022-08-11T14:18:46;102160.00;;;28.68;28.58
11856;BME280;5987;53.140;8.904;2022-08-11T14:21:53;102162.25;;;28.63;28.76
11856;BME280;5987;53.140;8.904;2022-08-11T14:25:11;102153.47;;;28.71;28.83
11856;BME280;5987;53.140;8.904;2022-08-11T14:28:16;102157.84;;;28.72;28.93
11856;BME280;5987;53.140;8.904;2022-08-11T14:31:42;102155.00;;;28.93;28.69
11856;BME280;5987;53.140;8.904;2022-08-11T14:34:48;102160.09;;;28.96;28.55
11856;BME280;5987;53.140;8.904;2022-08-11T14:37:53;102148.41;;;28.96;28.78
11856;BME280;5987;53.140;8.904;2022-08-11T14:40:58;102152.56;;;28.80;28.58
11856;BME280;5987;53.140;8.904;2022-08-11T14:44:20;102139.19;;;28.49;28.13
11856;BME280;5987;53.140;8.904;2022-08-11T14:47:46;102142.03;;;28.87;28.89
11856;BME280;5987;53.140;8.904;2022-08-11T14:50:52;102140.63;;;28.83;29.32
11856;BME280;5987;53.140;8.904;2022-08-11T14:53:57;102137.44;;;28.97;28.96
11856;BME280;5987;53.140;8.904;2022-08-11T14:57:16;102139.31;;;28.97;28.84
11856;BME280;5987;53.140;8.904;2022-08-11T15:00:41;102131.91;;;28.99;28.51
11856;BME280;5987;53.140;8.904;2022-08-11T15:03:45;102125.50;;;28.90;28.43
11856;BME280;5987;53.140;8.904;2022-08-11T15:07:10;102126.59;;;29.07;28.63
11856;BME280;5987;53.140;8.904;2022-08-11T15:10:19;102127.75;;;29.14;28.39
11856;BME280;5987;53.140;8.904;2022-08-11T15:13:24;102131.50;;;28.94;28.91
11856;BME280;5987;53.140;8.904;2022-08-11T15:16:28;102117.47;;;29.18;28.51
11856;BME280;5987;53.140;8.904;2022-08-11T15:19:51;102115.50;;;29.20;27.95
11856;BME280;5987;53.140;8.904;2022-08-11T15:23:15;102108.88;;;28.95;27.83
11856;BME280;5987;53.140;8.904;2022-08-11T15:26:39;102113.50;;;29.12;27.65
11856;BME280;5987;53.140;8.904;2022-08-11T15:30:03;102106.16;;;29.04;27.69
11856;BME280;5987;53.140;8.904;2022-08-11T15:33:38;102099.97;;;29.12;27.72
11856;BME280;5987;53.140;8.904;2022-08-11T15:37:06;102103.25;;;29.16;28.06
11856;BME280;5987;53.140;8.904;2022-08-11T15:40:34;102102.13;;;29.08;28.33
11856;BME280;5987;53.140;8.904;2022-08-11T15:44:02;102091.97;;;29.20;28.16
11856;BME280;5987;53.140;8.904;2022-08-11T15:47:54;102088.84;;;29.15;27.91
11856;BME280;5987;53.140;8.904;2022-08-11T15:51:10;102089.47;;;29.09;27.18
11856;BME280;5987;53.140;8.904;2022-08-11T15:54:19;102090.94;;;28.94;27.68
11856;BME280;5987;53.140;8.904;2022-08-11T15:57:29;102082.53;;;28.97;28.19
11856;BME280;5987;53.140;8.904;2022-08-11T16:00:52;102079.97;;;28.95;27.80
11856;BME280;5987;53.140;8.904;2022-08-11T16:04:21;102075.16;;;28.89;28.31
11856;BME280;5987;53.140;8.904;2022-08-11T16:07:32;102083.88;;;28.63;27.85
11856;BME280;5987;53.140;8.904;2022-08-11T16:10:42;102081.88;;;28.75;28.54
11856;BME280;5987;53.140;8.904;2022-08-11T16:13:52;102074.88;;;28.92;28.63
11856;BME280;5987;53.140;8.904;2022-08-11T16:17:15;102074.84;;;29.02;28.11
11856;BME280;5987;53.140;8.904;2022-08-11T16:20:25;102072.00;;;28.94;28.07
11856;BME280;5987;53.140;8.904;2022-08-11T16:23:30;102069.84;;;28.97;28.87
11856;BME280;5987;53.140;8.904;2022-08-11T16:26:39;102063.63;;;28.87;28.48
11856;BME280;5987;53.140;8.904;2022-08-11T16:30:07;102056.84;;;28.73;28.56
11856;BME280;5987;53.140;8.904;2022-08-11T16:33:12;102061.69;;;28.69;28.91
11856;BME280;5987;53.140;8.904;2022-08-11T16:36:37;102051.88;;;28.58;28.71
11856;BME280;5987;53.140;8.904;2022-08-11T16:39:59;102048.19;;;28.60;28.93
11856;BME280;5987;53.140;8.904;2022-08-11T16:43:08;102043.06;;;28.56;29.59
11856;BME280;5987;53.140;8.904;2022-08-11T16:46:32;102052.63;;;28.41;29.40
11856;BME280;5987;53.140;8.904;2022-08-11T16:49:57;102046.50;;;28.39;29.84
11856;BME280;5987;53.140;8.904;2022-08-11T16:53:02;102045.38;;;28.41;29.51
11856;BME280;5987;53.140;8.904;2022-08-11T16:56:08;102047.78;;;28.35;29.71
11856;BME280;5987;53.140;8.904;2022-08-11T16:59:22;102037.41;;;28.30;29.67
11856;BME280;5987;53.140;8.904;2022-08-11T17:02:36;102039.28;;;28.20;30.25
11856;BME280;5987;53.140;8.904;2022-08-11T17:06:01;102041.69;;;28.13;30.37
11856;BME280;5987;53.140;8.904;2022-08-11T17:09:26;102032.88;;;28.11;31.03
11856;BME280;5987;53.140;8.904;2022-08-11T17:12:51;102041.56;;;28.05;30.69
11856;BME280;5987;53.140;8.904;2022-08-11T17:16:21;102033.41;;;27.95;30.82
11856;BME280;5987;53.140;8.904;2022-08-11T17:19:32;102035.41;;;27.93;31.03
11856;BME280;5987;53.140;8.904;2022-08-11T17:22:59;102035.66;;;27.80;31.28
11856;BME280;5987;53.140;8.904;2022-08-11T17:26:29;102028.44;;;27.71;32.00
11856;BME280;5987;53.140;8.904;2022-08-11T17:29:52;102031.97;;;27.62;32.11
11856;BME280;5987;53.140;8.904;2022-08-11T17:32:56;102025.13;;;27.58;32.53
11856;BME280;5987;53.140;8.904;2022-08-11T17:36:20;102028.81;;;27.47;32.62
11856;BME280;5987;53.140;8.904;2022-08-11T17:39:30;102029.94;;;27.44;33.10
11856;BME280;5987;53.140;8.904;2022-08-11T17:42:37;102022.19;;;27.30;33.22
11856;BME280;5987;53.140;8.904;2022-08-11T17:45:58;102029.88;;;27.25;33.51
11856;BME280;5987;53.140;8.904;2022-08-11T17:49:20;102025.28;;;27.15;33.83
11856;BME280;5987;53.140;8.904;2022-08-11T17:52:27;102023.53;;;27.04;34.36
11856;BME280;5987;53.140;8.904;2022-08-11T17:55:51;102035.00;;;26.97;35.20
11856;BME280;5987;53.140;8.904;2022-08-11T17:59:15;102036.22;;;26.83;35.14
11856;BME280;5987;53.140;8.904;2022-08-11T18:02:41;102043.53;;;26.71;35.40
11856;BME280;5987;53.140;8.904;2022-08-11T18:06:05;102035.03;;;26.54;36.05
11856;BME280;5987;53.140;8.904;2022-08-11T18:09:18;102041.59;;;26.41;36.52
11856;BME280;5987;53.140;8.904;2022-08-11T18:12:42;102042.78;;;26.27;36.69
11856;BME280;5987;53.140;8.904;2022-08-11T18:16:05;102049.31;;;26.13;37.07
11856;BME280;5987;53.140;8.904;2022-08-11T18:19:26;102044.09;;;26.00;37.07
11856;BME280;5987;53.140;8.904;2022-08-11T18:22:51;102049.13;;;25.93;37.45